createdAt,value
2022-10-20T00:01:25.688Z,7.45
2022-10-20T00:03:53.737Z,7.45
2022-10-20T00:06:24.476Z,8.02
2022-10-20T00:08:52.085Z,8.20
2022-10-20T00:11:20.388Z,7.43
2022-10-20T00:13:48.967Z,7.38
2022-10-20T00:16:16.985Z,7.03
2022-10-20T00:18:44.134Z,7.65
2022-10-20T00:21:17.882Z,8.07
2022-10-20T00:23:45.273Z,7.03
2022-10-20T00:26:15.110Z,7.80
2022-10-20T00:28:42.790Z,8.15
2022-10-20T00:31:10.819Z,7.63
2022-10-20T00:33:37.988Z,8.20
2022-10-20T00:36:07.584Z,6.95
2022-10-20T00:38:35.113Z,7.25
2022-10-20T00:41:05.436Z,7.63
2022-10-20T00:43:51.710Z,7.78
2022-10-20T00:46:42.059Z,7.63
2022-10-20T00:49:18.123Z,7.22
2022-10-20T00:51:45.472Z,7.68
2022-10-20T00:54:20.536Z,7.28
2022-10-20T00:56:50.153Z,7.35
2022-10-20T00:59:21.799Z,7.18
2022-10-20T01:01:49.824Z,7.13
2022-10-20T01:04:17.862Z,7.30
2022-10-20T01:06:45.125Z,7.85
2022-10-20T01:09:12.539Z,7.53
2022-10-20T01:11:54.320Z,7.07
2022-10-20T01:14:39.724Z,7.50
2022-10-20T01:17:47.554Z,6.88
2022-10-20T01:20:42.101Z,6.90
2022-10-20T01:23:14.730Z,7.60
2022-10-20T01:25:57.395Z,6.63
2022-10-20T01:28:45.885Z,7.20
2022-10-20T01:31:23.888Z,7.88
2022-10-20T01:34:11.988Z,7.75
2022-10-20T01:36:51.469Z,7.53
2022-10-20T01:39:30.099Z,7.68
2022-10-20T01:42:03.755Z,7.53
2022-10-20T01:44:32.343Z,7.88
2022-10-20T01:47:00.406Z,8.25
2022-10-20T01:49:27.813Z,7.82
2022-10-20T01:51:56.113Z,7.85
2022-10-20T01:54:29.098Z,7.72
2022-10-20T01:57:16.282Z,7.75
2022-10-20T02:00:04.186Z,6.85
2022-10-20T02:03:04.122Z,7.13
2022-10-20T02:05:45.788Z,7.65
2022-10-20T02:08:34.542Z,7.80
2022-10-20T02:11:05.270Z,6.65
2022-10-20T02:13:36.038Z,7.47
2022-10-20T02:16:09.555Z,7.30
2022-10-20T02:18:42.593Z,6.80
2022-10-20T02:21:10.393Z,7.35
2022-10-20T02:23:42.327Z,6.53
2022-10-20T02:26:13.493Z,6.85
2022-10-20T02:28:47.308Z,6.47
2022-10-20T02:31:14.530Z,6.97
2022-10-20T02:33:43.691Z,7.32
2022-10-20T02:36:17.546Z,6.80
2022-10-20T02:38:44.784Z,6.97
2022-10-20T02:41:12.094Z,7.22
2022-10-20T02:43:39.372Z,6.82
2022-10-20T02:46:06.553Z,6.78
2022-10-20T02:48:33.644Z,6.30
2022-10-20T02:51:01.094Z,6.43
2022-10-20T02:53:28.090Z,6.68
2022-10-20T02:55:55.157Z,7.30
2022-10-20T02:58:22.155Z,6.90
2022-10-20T03:00:52.143Z,6.65
2022-10-20T03:03:19.751Z,6.82
2022-10-20T03:05:47.741Z,6.78
2022-10-20T03:08:15.305Z,6.22
2022-10-20T03:10:42.954Z,6.43
2022-10-20T03:13:10.765Z,6.45
2022-10-20T03:15:38.294Z,6.47
2022-10-20T03:18:05.411Z,6.20
2022-10-20T03:20:33.110Z,6.68
2022-10-20T03:23:00.220Z,6.22
2022-10-20T03:25:27.320Z,7.13
2022-10-20T03:27:54.330Z,6.45
2022-10-20T03:30:21.520Z,7.13
2022-10-20T03:32:48.913Z,6.55
2022-10-20T03:35:16.117Z,5.97
2022-10-20T03:37:43.114Z,6.40
2022-10-20T03:40:10.410Z,6.13
2022-10-20T03:42:37.926Z,6.13
2022-10-20T03:45:05.610Z,6.45
2022-10-20T03:47:32.717Z,6.18
2022-10-20T03:49:59.713Z,5.80
2022-10-20T03:52:26.784Z,6.60
2022-10-20T03:54:53.768Z,5.70
2022-10-20T03:57:21.997Z,6.30
2022-10-20T03:59:49.111Z,6.65
2022-10-20T04:02:36.670Z,6.45
2022-10-20T04:05:04.999Z,6.40
2022-10-20T04:07:32.233Z,5.75
2022-10-20T04:10:02.259Z,5.88
2022-10-20T04:12:29.406Z,6.38
2022-10-20T04:14:56.524Z,5.90
2022-10-20T04:17:23.920Z,6.38
2022-10-20T04:19:50.903Z,6.13
2022-10-20T04:22:17.924Z,5.97
2022-10-20T04:24:46.277Z,6.35
2022-10-20T04:27:13.309Z,6.50
2022-10-20T04:29:40.414Z,7.00
2022-10-20T04:32:07.484Z,5.90
2022-10-20T04:34:35.077Z,6.30
2022-10-20T04:37:02.298Z,6.60
2022-10-20T04:39:29.316Z,5.85
2022-10-20T04:41:56.472Z,6.00
2022-10-20T04:44:23.774Z,6.53
2022-10-20T04:46:51.093Z,6.40
2022-10-20T04:49:18.272Z,6.15
2022-10-20T04:51:45.857Z,5.60
2022-10-20T04:54:12.987Z,5.88
2022-10-20T04:56:40.532Z,5.88
2022-10-20T04:59:11.012Z,5.95
2022-10-20T05:01:41.021Z,6.15
2022-10-20T05:04:08.976Z,6.35
2022-10-20T05:06:36.156Z,5.97
2022-10-20T05:09:05.996Z,5.97
2022-10-20T05:11:37.364Z,5.95
2022-10-20T05:14:04.920Z,5.63
2022-10-20T05:16:32.247Z,6.30
2022-10-20T05:18:59.954Z,7.22
2022-10-20T05:21:30.064Z,5.93
2022-10-20T05:24:02.547Z,6.07
2022-10-20T05:26:34.743Z,6.30
2022-10-20T05:29:07.326Z,5.93
2022-10-20T05:31:41.875Z,6.60
2022-10-20T05:34:10.027Z,6.00
2022-10-20T05:36:37.583Z,6.43
2022-10-20T05:39:05.213Z,6.28
2022-10-20T05:41:37.910Z,5.93
2022-10-20T05:44:09.111Z,6.65
2022-10-20T05:46:41.761Z,6.57
2022-10-20T05:49:16.846Z,6.22
2022-10-20T05:51:45.208Z,6.32
2022-10-20T05:54:13.864Z,7.10
2022-10-20T05:56:41.620Z,6.85
2022-10-20T05:59:09.836Z,6.63
2022-10-20T06:01:50.498Z,6.43
2022-10-20T06:04:20.227Z,6.93
2022-10-20T06:06:49.101Z,6.60
2022-10-20T06:09:17.543Z,7.35
2022-10-20T06:11:45.153Z,6.97
2022-10-20T06:14:12.333Z,7.10
2022-10-20T06:16:39.574Z,7.25
2022-10-20T06:19:07.540Z,7.28
2022-10-20T06:21:36.814Z,7.13
2022-10-20T06:24:05.814Z,7.00
2022-10-20T06:26:36.732Z,7.18
2022-10-20T06:29:10.129Z,7.57
2022-10-20T06:31:40.137Z,7.10
2022-10-20T06:34:08.983Z,7.63
2022-10-20T06:36:38.675Z,7.22
2022-10-20T06:39:08.186Z,7.45
2022-10-20T06:41:35.778Z,7.68
2022-10-20T06:44:03.523Z,7.18
2022-10-20T06:46:33.385Z,7.55
2022-10-20T06:49:01.720Z,7.85
2022-10-20T06:51:28.904Z,7.50
2022-10-20T06:53:56.270Z,7.70
2022-10-20T06:56:25.939Z,7.88
2022-10-20T06:58:54.602Z,7.53
2022-10-20T07:01:24.558Z,7.65
2022-10-20T07:03:54.581Z,8.32
2022-10-20T07:06:25.537Z,9.07
2022-10-20T07:08:54.048Z,8.10
2022-10-20T07:11:23.898Z,7.70
2022-10-20T07:13:51.138Z,7.85
2022-10-20T07:16:21.769Z,7.57
2022-10-20T07:18:49.091Z,7.15
2022-10-20T07:21:19.599Z,8.05
2022-10-20T07:23:47.944Z,7.53
2022-10-20T07:26:19.118Z,7.95
2022-10-20T07:28:53.339Z,7.18
2022-10-20T07:31:29.075Z,7.15
2022-10-20T07:34:07.096Z,7.80
2022-10-20T07:36:44.287Z,7.20
2022-10-20T07:39:13.163Z,7.95
2022-10-20T07:41:40.948Z,7.35
2022-10-20T07:44:08.159Z,8.20
2022-10-20T07:46:36.621Z,8.38
2022-10-20T07:49:42.463Z,7.53
2022-10-20T07:51:51.738Z,8.00
2022-10-20T07:54:19.043Z,7.07
2022-10-20T07:56:46.595Z,7.80
2022-10-20T07:59:14.182Z,8.63
2022-10-20T08:01:41.983Z,8.45
2022-10-20T08:04:09.350Z,8.30
2022-10-20T08:06:36.708Z,7.40
2022-10-20T08:09:04.493Z,7.35
2022-10-20T08:11:31.871Z,7.25
2022-10-20T08:13:59.128Z,8.23
2022-10-20T08:16:28.974Z,7.28
2022-10-20T08:21:37.139Z,8.27
2022-10-20T08:24:04.291Z,8.48
2022-10-20T08:26:31.426Z,7.68
2022-10-20T08:28:58.758Z,7.88
2022-10-20T08:31:26.225Z,8.40
2022-10-20T08:33:54.246Z,7.82
2022-10-20T08:36:21.604Z,8.68
2022-10-20T08:38:49.092Z,8.77
2022-10-20T08:41:22.874Z,8.73
2022-10-20T08:43:53.089Z,8.02
2022-10-20T08:46:24.920Z,8.18
2022-10-20T08:48:53.090Z,7.47
2022-10-20T08:51:26.240Z,8.15
2022-10-20T08:53:57.384Z,8.07
2022-10-20T08:56:27.698Z,7.90
2022-10-20T08:58:55.067Z,8.93
2022-10-20T09:01:26.679Z,8.43
2022-10-20T09:04:03.345Z,8.68
2022-10-20T09:06:31.369Z,7.75
2022-10-20T09:08:58.790Z,8.35
2022-10-20T09:11:36.849Z,7.65
2022-10-20T09:14:04.210Z,8.63
2022-10-20T09:16:42.073Z,8.45
2022-10-20T09:19:28.897Z,8.85
2022-10-20T09:22:02.980Z,8.77
2022-10-20T09:24:32.085Z,8.73
2022-10-20T09:27:21.600Z,9.00
2022-10-20T09:29:48.986Z,8.57
2022-10-20T09:32:46.602Z,8.52
2022-10-20T09:35:36.022Z,8.75
2022-10-20T09:38:24.111Z,7.80
2022-10-20T09:41:14.065Z,8.40
2022-10-20T09:43:58.037Z,8.15
2022-10-20T09:46:29.642Z,8.65
2022-10-20T09:48:57.657Z,8.60
2022-10-20T09:51:27.363Z,8.55
2022-10-20T09:54:05.276Z,9.00
2022-10-20T09:56:38.255Z,8.73
2022-10-20T09:59:34.235Z,8.63
2022-10-20T10:02:22.970Z,8.77
2022-10-20T10:04:52.495Z,8.23
2022-10-20T10:07:22.572Z,9.32
2022-10-20T10:10:08.653Z,8.30
2022-10-20T10:12:36.614Z,8.25
2022-10-20T10:15:23.931Z,8.63
2022-10-20T10:17:51.446Z,9.05
2022-10-20T10:20:27.211Z,9.48
2022-10-20T10:23:28.037Z,9.82
2022-10-20T10:25:59.225Z,9.75
2022-10-20T10:28:35.367Z,9.77
2022-10-20T10:31:20.420Z,10.10
2022-10-20T10:33:49.427Z,9.98
2022-10-20T10:36:36.584Z,9.82
2022-10-20T10:39:05.949Z,10.43
2022-10-20T10:42:04.007Z,10.48
2022-10-20T10:44:54.106Z,10.55
2022-10-20T10:47:42.954Z,10.07
2022-10-20T10:50:42.577Z,10.52
2022-10-20T10:53:16.397Z,10.13
2022-10-20T10:56:20.284Z,10.07
2022-10-20T10:59:02.908Z,10.70
2022-10-20T11:01:45.377Z,10.57
2022-10-20T11:04:44.213Z,10.98
2022-10-20T11:07:33.333Z,10.98
2022-10-20T11:10:13.552Z,10.55
2022-10-20T11:12:53.561Z,10.63
2022-10-20T11:15:54.185Z,11.15
2022-10-20T11:18:49.416Z,10.90
2022-10-20T11:21:34.910Z,10.27
2022-10-20T11:24:23.591Z,10.23
2022-10-20T11:27:01.801Z,10.93
2022-10-20T11:30:09.601Z,12.60
2022-10-20T11:32:53.373Z,11.50
2022-10-20T11:35:40.171Z,11.45
2022-10-20T11:38:26.598Z,10.65
2022-10-20T11:41:06.472Z,11.70
2022-10-20T11:43:43.274Z,12.40
2022-10-20T11:46:15.069Z,12.23
2022-10-20T11:48:48.267Z,11.75
2022-10-20T11:51:26.964Z,12.73
2022-10-20T11:54:12.042Z,12.30
2022-10-20T11:57:00.163Z,12.50
2022-10-20T11:59:42.320Z,13.23
2022-10-20T12:02:19.254Z,12.25
2022-10-20T12:05:07.997Z,12.93
2022-10-20T12:08:28.910Z,12.27
2022-10-20T12:11:16.261Z,13.10
2022-10-20T12:13:58.717Z,13.05
2022-10-20T12:16:59.738Z,13.40
2022-10-20T12:19:32.287Z,13.60
2022-10-20T12:22:02.070Z,14.10
2022-10-20T12:24:54.839Z,14.43
2022-10-20T12:27:29.819Z,13.68
2022-10-20T12:30:18.151Z,14.63
2022-10-20T12:32:53.711Z,14.18
2022-10-20T12:35:31.571Z,13.63
2022-10-20T12:38:05.560Z,14.05
2022-10-20T12:40:41.513Z,15.40
2022-10-20T12:43:43.975Z,15.43
2022-10-20T12:46:17.219Z,15.25
2022-10-20T12:48:47.128Z,14.85
2022-10-20T12:51:51.846Z,16.15
2022-10-20T12:54:24.444Z,15.93
2022-10-20T12:56:52.608Z,15.95
2022-10-20T12:59:28.500Z,15.77
2022-10-20T13:02:11.006Z,16.88
2022-10-20T13:05:02.807Z,16.58
2022-10-20T13:07:52.791Z,15.68
2022-10-20T13:10:25.502Z,16.58
2022-10-20T13:12:53.671Z,16.20
2022-10-20T13:15:22.550Z,15.57
2022-10-20T13:18:02.777Z,14.80
2022-10-20T13:21:02.950Z,16.10
2022-10-20T13:23:37.658Z,14.50
2022-10-20T13:26:32.583Z,16.50
2022-10-20T13:32:03.836Z,17.63
2022-10-20T13:35:04.963Z,15.95
2022-10-20T13:37:53.248Z,16.13
2022-10-20T13:40:39.972Z,16.88
2022-10-20T13:43:25.451Z,15.60
2022-10-20T13:45:55.443Z,17.45
2022-10-20T13:48:34.961Z,16.02
2022-10-20T13:51:24.774Z,17.35
2022-10-20T13:53:56.474Z,16.88
2022-10-20T13:56:36.278Z,16.75
2022-10-20T13:59:13.907Z,17.42
2022-10-20T14:01:51.315Z,18.00
2022-10-20T14:04:35.508Z,17.10
2022-10-20T14:07:15.976Z,18.00
2022-10-20T14:09:46.652Z,17.13
2022-10-20T14:12:28.295Z,17.42
2022-10-20T14:15:02.243Z,18.13
2022-10-20T14:17:29.810Z,18.58
2022-10-20T14:20:31.051Z,18.45
2022-10-20T14:23:00.770Z,18.00
2022-10-20T14:25:28.702Z,18.65
2022-10-20T14:27:56.888Z,17.77
2022-10-20T14:30:24.888Z,17.30
2022-10-20T14:32:52.658Z,17.85
2022-10-20T14:35:44.185Z,17.25
2022-10-20T14:38:25.243Z,18.38
2022-10-20T14:40:55.509Z,18.95
2022-10-20T14:43:39.688Z,17.88
2022-10-20T14:46:10.436Z,19.77
2022-10-20T14:48:50.163Z,19.38
2022-10-20T14:51:41.056Z,19.70
2022-10-20T14:54:20.280Z,18.52
2022-10-20T14:56:54.997Z,18.90
2022-10-20T14:59:31.913Z,19.65
2022-10-20T15:02:12.596Z,18.92
2022-10-20T15:04:42.036Z,19.02
2022-10-20T15:07:34.185Z,19.48
2022-10-20T15:10:15.812Z,19.13
2022-10-20T15:12:49.189Z,19.25
2022-10-20T15:15:29.008Z,20.30
2022-10-20T15:18:05.238Z,18.92
2022-10-20T15:20:35.363Z,19.48
2022-10-20T15:23:15.142Z,19.63
2022-10-20T15:25:50.721Z,19.83
2022-10-20T15:28:31.911Z,19.38
2022-10-20T15:31:00.284Z,20.25
2022-10-20T15:33:27.628Z,19.90
2022-10-20T15:35:55.144Z,20.08
2022-10-20T15:38:22.427Z,19.90
2022-10-20T15:40:49.715Z,19.33
2022-10-20T15:43:18.859Z,19.58
2022-10-20T15:45:53.875Z,19.45
2022-10-20T15:48:27.260Z,21.55
2022-10-20T15:50:55.288Z,20.43
2022-10-20T15:53:22.604Z,19.98
2022-10-20T15:55:49.866Z,20.77
2022-10-20T15:58:17.019Z,20.02
2022-10-20T16:00:44.341Z,20.25
2022-10-20T16:03:19.201Z,21.50
2022-10-20T16:05:47.464Z,21.45
2022-10-20T16:10:46.920Z,21.38
2022-10-20T16:13:16.168Z,19.90
2022-10-20T16:15:43.332Z,19.70
2022-10-20T16:18:11.147Z,19.65
2022-10-20T16:20:38.320Z,20.98
2022-10-20T16:23:05.471Z,22.33
2022-10-20T16:25:32.866Z,20.92
2022-10-20T16:27:59.901Z,22.38
2022-10-20T16:30:27.027Z,20.13
2022-10-20T16:32:54.509Z,21.75
2022-10-20T16:35:21.723Z,20.65
2022-10-20T16:37:49.106Z,20.25
2022-10-20T16:40:16.580Z,21.35
2022-10-20T16:42:43.840Z,21.88
2022-10-20T16:45:11.258Z,19.83
2022-10-20T16:47:38.781Z,20.48
2022-10-20T16:50:06.776Z,21.08
2022-10-20T16:52:33.935Z,22.08
2022-10-20T16:55:01.037Z,22.85
2022-10-20T16:57:29.779Z,21.02
2022-10-20T16:59:56.852Z,20.90
2022-10-20T17:02:25.330Z,21.58
2022-10-20T17:04:52.517Z,22.88
2022-10-20T17:07:22.438Z,20.45
2022-10-20T17:09:49.819Z,22.05
2022-10-20T17:12:17.242Z,21.50
2022-10-20T17:14:44.582Z,21.40
2022-10-20T17:17:11.900Z,21.73
2022-10-20T17:19:41.291Z,22.25
2022-10-20T17:22:08.660Z,21.58
2022-10-20T17:24:36.113Z,22.48
2022-10-20T17:27:03.515Z,23.27
2022-10-20T17:29:31.388Z,21.20
2022-10-20T17:31:58.544Z,21.90
2022-10-20T17:34:25.964Z,22.77
2022-10-20T17:36:53.288Z,22.30
2022-10-20T17:39:22.354Z,22.90
2022-10-20T17:41:49.678Z,22.00
2022-10-20T17:44:17.070Z,20.15
2022-10-20T17:46:44.317Z,21.98
2022-10-20T17:49:11.710Z,21.98
2022-10-20T17:51:39.124Z,21.35
2022-10-20T17:54:06.513Z,22.13
2022-10-20T17:56:36.387Z,22.20
2022-10-20T17:59:06.693Z,22.13
2022-10-20T18:01:39.334Z,21.88
2022-10-20T18:04:12.962Z,22.02
2022-10-20T18:06:41.578Z,22.15
2022-10-20T18:09:11.779Z,21.38
2022-10-20T18:11:40.960Z,21.20
2022-10-20T18:14:08.162Z,21.58
2022-10-20T18:16:37.335Z,20.83
2022-10-20T18:19:05.157Z,21.95
2022-10-20T18:21:33.528Z,20.98
2022-10-20T18:24:05.350Z,21.67
2022-10-20T18:26:34.707Z,23.08
2022-10-20T18:29:03.198Z,22.13
2022-10-20T18:31:32.632Z,21.95
2022-10-20T18:34:05.676Z,21.50
2022-10-20T18:36:36.888Z,22.05
2022-10-20T18:39:07.589Z,21.25
2022-10-20T18:41:38.421Z,21.02
2022-10-20T18:44:10.319Z,22.15
2022-10-20T18:46:46.274Z,22.00
2022-10-20T18:49:16.243Z,21.50
2022-10-20T18:51:45.946Z,21.38
2022-10-20T18:54:13.402Z,22.70
2022-10-20T18:56:41.222Z,22.30
2022-10-20T18:59:18.173Z,21.75
2022-10-20T19:01:46.193Z,23.60
2022-10-20T19:04:14.021Z,23.85
2022-10-20T19:06:47.693Z,23.17
2022-10-20T19:09:18.590Z,22.17
2022-10-20T19:11:47.667Z,23.17
2022-10-20T19:14:15.631Z,22.90
2022-10-20T19:16:47.172Z,22.83
2022-10-20T19:19:14.941Z,21.63
2022-10-20T19:21:42.276Z,23.23
2022-10-20T19:24:16.783Z,22.40
2022-10-20T19:26:57.422Z,22.83
2022-10-20T19:29:29.830Z,23.60
2022-10-20T19:32:02.577Z,22.13
2022-10-20T19:34:36.848Z,21.42
2022-10-20T19:39:39.328Z,21.17
2022-10-20T19:42:07.741Z,21.25
2022-10-20T19:44:35.084Z,20.60
2022-10-20T19:47:02.725Z,21.15
2022-10-20T19:49:30.804Z,20.42
2022-10-20T19:51:58.108Z,21.40
2022-10-20T19:54:25.931Z,21.42
2022-10-20T19:56:53.457Z,21.23
2022-10-20T19:59:20.785Z,22.05
2022-10-20T20:01:49.825Z,21.60
2022-10-20T20:04:17.209Z,21.17
2022-10-20T20:06:46.653Z,20.55
2022-10-20T20:09:15.880Z,19.63
2022-10-20T20:11:44.625Z,21.08
2022-10-20T20:14:17.674Z,22.08
2022-10-20T20:16:47.978Z,21.63
2022-10-20T20:19:17.726Z,22.02
2022-10-20T20:21:46.248Z,22.17
2022-10-20T20:24:14.555Z,23.00
2022-10-20T20:26:41.957Z,21.83
2022-10-20T20:29:10.795Z,21.52
2022-10-20T20:31:38.079Z,23.52
2022-10-20T20:34:05.290Z,22.10
2022-10-20T20:36:32.603Z,24.08
2022-10-20T20:39:00.433Z,23.00
2022-10-20T20:41:30.408Z,22.60
2022-10-20T20:43:58.111Z,22.77
2022-10-20T20:46:29.698Z,23.63
2022-10-20T20:48:57.658Z,23.33
2022-10-20T20:51:26.200Z,22.55
2022-10-20T20:53:53.312Z,22.70
2022-10-20T20:56:23.217Z,24.08
2022-10-20T20:58:55.771Z,22.80
2022-10-20T21:01:28.107Z,23.08
2022-10-20T21:04:00.759Z,24.00
2022-10-20T21:06:33.708Z,22.63
2022-10-20T21:09:01.545Z,23.73
2022-10-20T21:11:29.166Z,22.83
2022-10-20T21:13:59.111Z,21.88
2022-10-20T21:16:31.440Z,23.30
2022-10-20T21:19:01.701Z,22.98
2022-10-20T21:21:34.577Z,24.05
2022-10-20T21:24:02.799Z,23.10
2022-10-20T21:26:30.432Z,21.88
2022-10-20T21:28:58.136Z,21.73
2022-10-20T21:31:27.007Z,23.45
2022-10-20T21:33:56.596Z,22.13
2022-10-20T21:36:25.130Z,21.88
2022-10-20T21:38:52.696Z,22.95
2022-10-20T21:41:24.910Z,21.77
2022-10-20T21:43:54.213Z,21.83
2022-10-20T21:46:29.792Z,21.55
2022-10-20T21:49:08.036Z,22.52
2022-10-20T21:51:41.261Z,21.73
2022-10-20T21:54:12.754Z,21.80
2022-10-20T21:56:41.599Z,21.75
2022-10-20T21:59:15.002Z,21.38
2022-10-20T22:01:42.183Z,20.87
2022-10-20T22:04:09.530Z,21.20
2022-10-20T22:06:38.644Z,21.60
2022-10-20T22:09:07.165Z,20.52
2022-10-20T22:11:38.498Z,20.42
2022-10-20T22:14:06.787Z,21.80
2022-10-20T22:16:39.804Z,21.35
2022-10-20T22:19:09.061Z,20.83
2022-10-20T22:21:39.102Z,20.60
2022-10-20T22:24:07.071Z,20.15
2022-10-20T22:26:35.065Z,21.27
2022-10-20T22:29:04.042Z,20.20
2022-10-20T22:31:31.345Z,20.98
2022-10-20T22:34:00.118Z,20.77
2022-10-20T22:36:29.156Z,19.90
2022-10-20T22:38:57.055Z,19.85
2022-10-20T22:41:24.762Z,20.23
2022-10-20T22:43:52.047Z,19.45
2022-10-20T22:46:19.809Z,20.08
2022-10-20T22:48:47.214Z,19.92
2022-10-20T22:51:14.539Z,20.63
2022-10-20T22:53:42.538Z,20.55
2022-10-20T22:56:15.176Z,20.48
2022-10-20T22:58:42.921Z,20.45
2022-10-20T23:01:13.039Z,22.52
2022-10-20T23:03:40.679Z,21.13
2022-10-20T23:06:10.261Z,20.08
2022-10-20T23:08:47.102Z,20.40
2022-10-20T23:11:15.569Z,19.60
2022-10-20T23:13:43.294Z,21.08
2022-10-20T23:16:11.330Z,19.17
2022-10-20T23:18:38.796Z,20.45
2022-10-20T23:21:06.859Z,20.92
2022-10-20T23:23:38.018Z,20.05
2022-10-20T23:26:09.629Z,20.92
2022-10-20T23:28:37.923Z,19.75
2022-10-20T23:31:09.466Z,20.15
2022-10-20T23:33:38.274Z,20.15
2022-10-20T23:36:06.329Z,18.95
2022-10-20T23:38:33.986Z,20.55
2022-10-20T23:41:01.347Z,20.48
2022-10-20T23:43:28.554Z,19.75
2022-10-20T23:45:55.842Z,17.80
2022-10-20T23:48:23.071Z,17.42
2022-10-20T23:50:50.387Z,19.33
2022-10-20T23:53:17.709Z,17.83
2022-10-20T23:55:45.096Z,18.73
2022-10-20T23:58:12.874Z,17.95
